METAR Data
IDs: Format: Raw Decoded Include TAF

Data at: 1424 UTC 21 Apr 2021

METAR for:KBNW (Boone Muni, IA, US)
Text:KBNW 211335Z AUTO 35015KT 10SM BKN038 OVC070 01/M06 A3019 RMK AO2
Temperature: 1.0°C ( 34°F)
Dewpoint: -6.0°C ( 21°F) [RH = 59%]
Pressure (altimeter):30.19 inches Hg (1022.4 mb)
Winds:from the N (350 degrees) at 17 MPH (15 knots; 7.7 m/s)
Visibility:10 or more sm (16+ km)
Ceiling:3800 feet AGL
Clouds: broken clouds at 3800 feet AGL, overcast cloud deck at 7000 feet AGL
QC Flag:automated observation with no human augmentation